Time;durP1;ratioP1;P1;durP2;ratioP2;P2;SDS_P1;SDS_P2;PMS_P1;PMS_P2;Temp;Humidity;BMP_temperature;BMP_pressure;BME280_temperature;BME280_humidity;BME280_pressure;Samples;Min_cycle;Max_cycle;Signal;HPM_P1;HPM_P2
2023/05/10 00:00:28;;;;;;;5.35;2.90;;;16.40;56.80;;;;;;5034579;28;20025;-69
2023/05/10 00:02:54;;;;;;;4.38;2.58;;;16.40;56.90;;;;;;5034472;28;20105;-69
2023/05/10 00:05:20;;;;;;;4.07;2.90;;;16.40;56.90;;;;;;5034598;28;20430;-69
2023/05/10 00:07:46;;;;;;;3.38;2.50;;;16.40;56.90;;;;;;5034600;28;20044;-69
2023/05/10 00:10:12;;;;;;;3.20;2.47;;;16.40;57.20;;;;;;5035744;28;20152;-69
2023/05/10 00:12:38;;;;;;;3.30;2.70;;;16.40;57.00;;;;;;5038322;28;20052;-69
2023/05/10 00:15:05;;;;;;;3.10;2.38;;;16.40;57.20;;;;;;5038103;28;20021;-69
2023/05/10 00:17:30;;;;;;;3.45;2.60;;;16.30;57.20;;;;;;5038296;28;20045;-69
2023/05/10 00:19:57;;;;;;;6.18;3.10;;;16.30;57.10;;;;;;5038011;28;20443;-69
2023/05/10 00:22:23;;;;;;;4.20;2.88;;;16.30;57.30;;;;;;5037812;28;20333;-69
2023/05/10 00:24:49;;;;;;;3.65;3.00;;;16.30;57.30;;;;;;5037876;28;20018;-69
2023/05/10 00:27:15;;;;;;;3.67;2.78;;;16.30;57.10;;;;;;5038110;28;20181;-69
2023/05/10 00:29:40;;;;;;;4.45;2.58;;;16.20;57.10;;;;;;5036840;28;20401;-69
2023/05/10 00:32:06;;;;;;;3.13;2.30;;;16.30;57.30;;;;;;5038138;28;20072;-69
2023/05/10 00:34:32;;;;;;;3.97;2.60;;;16.20;57.40;;;;;;5038014;28;20018;-69
2023/05/10 00:36:58;;;;;;;3.17;2.65;;;16.20;57.50;;;;;;5037934;28;20354;-69
2023/05/10 00:39:26;;;;;;;4.88;2.80;;;16.20;57.80;;;;;;5037904;28;20032;-69
2023/05/10 00:41:52;;;;;;;4.07;3.10;;;16.10;57.90;;;;;;5037842;28;20051;-69
2023/05/10 00:44:18;;;;;;;4.35;2.88;;;16.10;58.50;;;;;;5037735;28;20434;-69
2023/05/10 00:46:45;;;;;;;4.55;3.25;;;16.00;58.70;;;;;;5037437;28;20120;-69
2023/05/10 00:49:11;;;;;;;3.55;2.47;;;16.00;58.90;;;;;;5019996;28;20025;-69
2023/05/10 00:51:37;;;;;;;4.47;2.92;;;15.90;59.10;;;;;;5037631;28;20060;-69
2023/05/10 00:54:03;;;;;;;4.70;3.00;;;15.90;59.40;;;;;;5037366;28;20021;-69
2023/05/10 00:56:29;;;;;;;4.30;3.40;;;15.90;59.30;;;;;;5037106;28;20045;-69
2023/05/10 00:58:56;;;;;;;6.82;3.28;;;15.90;60.40;;;;;;5037555;28;20107;-69
2023/05/10 01:01:22;;;;;;;4.75;3.05;;;15.80;59.90;;;;;;5037150;28;20409;-69
2023/05/10 01:03:48;;;;;;;5.22;2.83;;;15.80;60.20;;;;;;5037367;28;20101;-69
2023/05/10 01:06:14;;;;;;;7.47;3.50;;;15.70;60.20;;;;;;5037146;28;20133;-69
2023/05/10 01:08:40;;;;;;;4.32;3.20;;;15.70;60.20;;;;;;5037346;28;20109;-69
2023/05/10 01:11:06;;;;;;;5.07;3.33;;;15.60;60.60;;;;;;5037490;28;20407;-69
2023/05/10 01:13:37;;;;;;;5.75;3.30;;;15.60;60.70;;;;;;5036939;28;20028;-69
2023/05/10 01:16:03;;;;;;;6.03;3.60;;;15.60;60.90;;;;;;5036929;28;20057;-69
2023/05/10 01:18:38;;;;;;;6.10;3.45;;;15.60;61.10;;;;;;5036856;28;20032;-69
2023/05/10 01:21:22;;;;;;;7.05;3.72;;;15.50;61.70;;;;;;5036921;28;20029;-69
2023/05/10 01:24:02;;;;;;;7.78;4.05;;;15.40;61.90;;;;;;5036722;28;20029;-69
2023/05/10 01:27:09;;;;;;;5.32;3.63;;;15.40;62.30;;;;;;5037308;28;20029;-69
2023/05/10 01:30:18;;;;;;;6.70;3.70;;;15.40;62.50;;;;;;4995796;28;20061;-69
2023/05/10 01:32:54;;;;;;;5.78;3.78;;;15.40;62.30;;;;;;4996122;28;20044;-69
2023/05/10 01:35:42;;;;;;;7.10;3.85;;;15.30;62.70;;;;;;4995531;28;20077;-69
2023/05/10 01:38:37;;;;;;;5.18;3.60;;;15.30;62.60;;;;;;4995990;28;20022;-68
2023/05/10 01:41:17;;;;;;;5.65;3.85;;;15.30;62.70;;;;;;4995749;28;20041;-69
2023/05/10 01:44:25;;;;;;;6.35;3.50;;;15.30;62.50;;;;;;4995428;28;20026;-69
2023/05/10 01:47:04;;;;;;;7.10;4.05;;;15.30;62.60;;;;;;4937330;29;20039;-69
2023/05/10 01:49:35;;;;;;;7.10;3.95;;;15.20;62.90;;;;;;4988411;28;20113;-69
2023/05/10 01:52:09;;;;;;;4.78;3.60;;;15.20;63.60;;;;;;4995406;28;20467;-69
2023/05/10 01:54:38;;;;;;;5.32;3.30;;;15.20;63.30;;;;;;4994953;28;20034;-68
2023/05/10 01:57:08;;;;;;;5.68;3.42;;;15.20;63.50;;;;;;4995169;28;20042;-69
2023/05/10 01:59:38;;;;;;;4.68;3.20;;;15.20;63.60;;;;;;4978989;28;20064;-69
2023/05/10 02:02:06;;;;;;;6.07;3.35;;;15.10;63.40;;;;;;4994923;28;20034;-69
2023/05/10 02:04:37;;;;;;;5.75;3.47;;;15.10;63.60;;;;;;5001509;28;20112;-69
2023/05/10 02:07:05;;;;;;;5.55;3.50;;;15.10;63.60;;;;;;5016550;28;20025;-69
2023/05/10 02:09:33;;;;;;;6.43;4.00;;;15.10;64.00;;;;;;5016171;28;20029;-69
2023/05/10 02:12:02;;;;;;;5.78;4.07;;;15.10;63.80;;;;;;5016533;28;20034;-69
2023/05/10 02:14:32;;;;;;;5.53;3.83;;;15.10;64.00;;;;;;5016046;28;20332;-69
2023/05/10 02:16:59;;;;;;;5.40;3.30;;;15.10;64.20;;;;;;5016083;28;20033;-69
2023/05/10 02:19:27;;;;;;;6.15;4.03;;;15.10;64.30;;;;;;5016017;28;20026;-69
2023/05/10 02:21:55;;;;;;;9.05;3.83;;;15.00;64.50;;;;;;5016007;28;20104;-69
2023/05/10 02:24:22;;;;;;;7.18;3.70;;;15.00;64.50;;;;;;5015827;28;20076;-69
2023/05/10 02:26:51;;;;;;;4.82;3.63;;;15.00;64.30;;;;;;5015905;28;20030;-69
2023/05/10 02:29:18;;;;;;;6.25;3.53;;;15.00;64.40;;;;;;5016395;28;20033;-69
2023/05/10 02:31:45;;;;;;;5.43;3.80;;;15.00;64.20;;;;;;5014925;28;20033;-69
2023/05/10 02:34:12;;;;;;;6.40;3.45;;;15.00;64.10;;;;;;5015201;28;20022;-69
2023/05/10 02:36:40;;;;;;;4.13;3.40;;;15.00;64.00;;;;;;5015992;28;20026;-69
2023/05/10 02:39:09;;;;;;;5.15;3.08;;;14.90;63.60;;;;;;5016032;28;20030;-69
2023/05/10 02:41:37;;;;;;;6.90;3.65;;;14.90;63.30;;;;;;5015666;28;20109;-69
2023/05/10 02:44:06;;;;;;;4.43;3.00;;;15.00;63.40;;;;;;5015870;28;20025;-69
2023/05/10 02:46:32;;;;;;;5.28;3.40;;;15.00;62.90;;;;;;5015567;28;20435;-69
2023/05/10 02:48:58;;;;;;;3.92;2.83;;;15.00;62.90;;;;;;5015603;28;20036;-69
2023/05/10 02:51:32;;;;;;;4.55;3.17;;;15.00;62.90;;;;;;5015450;28;20360;-69
2023/05/10 02:54:00;;;;;;;;;;;15.00;62.90;;;;;;5016217;28;20018;-69
2023/05/10 02:56:32;;;;;;;3.88;3.10;;;15.00;62.70;;;;;;5031279;28;19967;-69
2023/05/10 02:58:58;;;;;;;6.77;3.20;;;15.00;62.50;;;;;;5035804;28;20032;-69
2023/05/10 03:01:24;;;;;;;5.10;3.08;;;15.00;62.30;;;;;;5035211;28;20033;-69
2023/05/10 03:03:50;;;;;;;5.38;3.60;;;15.00;62.40;;;;;;5035349;28;20366;-69
2023/05/10 03:06:16;;;;;;;6.35;3.63;;;15.00;62.30;;;;;;5035611;28;20455;-69
2023/05/10 03:08:43;;;;;;;6.10;3.90;;;14.90;62.40;;;;;;5034228;28;20025;-69
2023/05/10 03:11:23;;;;;;;5.40;3.40;;;14.90;62.60;;;;;;5035028;28;20029;-69
2023/05/10 03:14:07;;;;;;;6.95;3.90;;;14.90;62.80;;;;;;5035099;28;20017;-69
2023/05/10 03:17:00;;;;;;;6.63;3.38;;;14.90;63.20;;;;;;5035353;28;20101;-69
2023/05/10 03:19:54;;;;;;;6.07;3.45;;;14.80;63.10;;;;;;5035264;28;20028;-69
2023/05/10 03:22:30;;;;;;;6.20;3.75;;;14.80;63.20;;;;;;5035651;28;20030;-69
2023/05/10 03:24:57;;;;;;;5.10;3.00;;;14.80;63.10;;;;;;5035530;28;20096;-69
2023/05/10 03:27:26;;;;;;;5.70;3.58;;;14.70;63.20;;;;;;5035220;28;20092;-69
2023/05/10 03:29:54;;;;;;;5.85;3.60;;;14.70;63.30;;;;;;5033916;28;20021;-69
2023/05/10 03:32:21;;;;;;;6.68;3.17;;;14.70;63.30;;;;;;5035596;28;20025;-69
2023/05/10 03:34:46;;;;;;;5.30;3.47;;;14.60;63.20;;;;;;5035196;28;20028;-69
2023/05/10 03:37:12;;;;;;;4.32;3.03;;;14.60;63.30;;;;;;5034908;28;20034;-69
2023/05/10 03:39:38;;;;;;;5.95;3.80;;;14.60;63.00;;;;;;5035078;28;20100;-69
2023/05/10 03:42:04;;;;;;;5.10;3.72;;;14.50;62.50;;;;;;5034760;28;20443;-69
2023/05/10 03:44:32;;;;;;;4.00;3.10;;;14.50;62.90;;;;;;5035028;28;20451;-69
2023/05/10 03:46:59;;;;;;;5.20;3.15;;;14.50;62.90;;;;;;5038886;28;20037;-69
2023/05/10 03:49:25;;;;;;;4.40;3.10;;;14.50;63.10;;;;;;5037961;28;20025;-69
2023/05/10 03:51:51;;;;;;;4.50;3.35;;;14.50;63.10;;;;;;5038512;28;20036;-69
2023/05/10 03:54:17;;;;;;;4.80;3.20;;;14.40;63.60;;;;;;5038747;28;20041;-69
2023/05/10 03:56:43;;;;;;;5.22;3.50;;;14.40;63.80;;;;;;5038312;28;20057;-69
2023/05/10 03:59:09;;;;;;;4.90;2.92;;;14.40;63.90;;;;;;5038690;28;20018;-69
2023/05/10 04:01:35;;;;;;;3.88;2.92;;;14.40;64.00;;;;;;5038298;28;20033;-69
2023/05/10 04:04:01;;;;;;;5.57;3.47;;;14.40;63.90;;;;;;5038497;28;20033;-69
2023/05/10 04:06:27;;;;;;;4.93;3.03;;;14.40;64.20;;;;;;5038795;28;20303;-69
2023/05/10 04:08:53;;;;;;;4.93;3.17;;;14.30;63.80;;;;;;5038231;28;20029;-69
2023/05/10 04:11:21;;;;;;;6.15;3.60;;;14.30;63.90;;;;;;5038840;28;20030;-69
2023/05/10 04:13:47;;;;;;;4.38;3.00;;;14.30;64.40;;;;;;5038359;28;20041;-69
2023/05/10 04:16:13;;;;;;;5.05;3.30;;;14.30;64.10;;;;;;5038632;28;20030;-69
2023/05/10 04:18:39;;;;;;;5.88;3.53;;;14.30;64.30;;;;;;5038328;28;20093;-69
2023/05/10 04:21:12;;;;;;;5.45;3.30;;;14.20;64.40;;;;;;5037948;28;20033;-69
2023/05/10 04:23:38;;;;;;;5.68;3.30;;;14.20;64.30;;;;;;5037904;28;20501;-69
2023/05/10 04:26:04;;;;;;;5.28;3.28;;;14.20;64.60;;;;;;5037833;28;20029;-69
2023/05/10 04:28:30;;;;;;;4.43;3.30;;;14.20;64.80;;;;;;5037832;28;20113;-69
2023/05/10 04:31:07;;;;;;;5.13;2.83;;;14.20;65.00;;;;;;5038246;28;20025;-69
2023/05/10 04:33:33;;;;;;;3.70;2.72;;;14.20;64.60;;;;;;5037993;28;20022;-69
2023/05/10 04:36:00;;;;;;;4.85;2.75;;;14.10;64.80;;;;;;5037963;28;20064;-69
2023/05/10 04:38:26;;;;;;;4.00;2.92;;;14.10;65.30;;;;;;5037916;28;20025;-69
2023/05/10 04:40:53;;;;;;;5.00;3.50;;;14.20;65.10;;;;;;5037561;28;20029;-69
2023/05/10 04:43:19;;;;;;;6.30;3.13;;;14.10;65.10;;;;;;5037557;28;20026;-69
2023/05/10 04:45:45;;;;;;;5.13;3.13;;;14.10;65.00;;;;;;5038030;28;20022;-69
2023/05/10 04:48:11;;;;;;;5.85;3.38;;;14.10;65.50;;;;;;5037473;28;20084;-69
2023/05/10 04:50:37;;;;;;;6.20;3.40;;;14.10;65.60;;;;;;5037393;28;20022;-68
2023/05/10 04:53:03;;;;;;;5.18;3.20;;;14.00;65.60;;;;;;5037334;28;20063;-68
2023/05/10 04:55:29;;;;;;;5.35;3.03;;;14.00;65.90;;;;;;5035660;28;20046;-69
2023/05/10 04:57:57;;;;;;;5.43;3.30;;;14.00;65.90;;;;;;5037325;28;20060;-69
2023/05/10 05:00:23;;;;;;;4.85;3.13;;;14.00;66.00;;;;;;5037789;28;20037;-69
2023/05/10 05:02:49;;;;;;;5.40;3.53;;;14.00;66.40;;;;;;5037179;28;20057;-69
2023/05/10 05:05:15;;;;;;;4.78;3.30;;;14.00;66.10;;;;;;5037674;28;20044;-68
2023/05/10 05:07:41;;;;;;;6.35;3.35;;;14.00;66.20;;;;;;5037371;28;20021;-68
2023/05/10 05:10:08;;;;;;;5.97;3.17;;;13.90;66.70;;;;;;5037017;28;20359;-68
2023/05/10 05:12:35;;;;;;;7.38;3.40;;;13.90;66.80;;;;;;5037183;28;20093;-67
2023/05/10 05:15:01;;;;;;;6.10;3.15;;;13.90;66.70;;;;;;5037234;28;20104;-67
2023/05/10 05:17:27;;;;;;;6.95;3.22;;;14.00;66.60;;;;;;5037172;28;20018;-67
2023/05/10 05:19:54;;;;;;;5.00;3.00;;;14.00;66.40;;;;;;5035890;28;20048;-67
2023/05/10 05:22:26;;;;;;;3.60;2.90;;;14.00;66.80;;;;;;5037012;28;20022;-67
2023/05/10 05:24:53;;;;;;;5.55;2.97;;;14.00;67.20;;;;;;5036831;28;20359;-67
2023/05/10 05:27:20;;;;;;;5.82;3.13;;;14.00;67.00;;;;;;5036789;28;20127;-68
2023/05/10 05:29:46;;;;;;;5.97;3.40;;;14.00;67.50;;;;;;5036668;28;20037;-68
2023/05/10 05:32:12;;;;;;;7.13;3.50;;;14.00;67.10;;;;;;5037044;28;20025;-69
2023/05/10 05:34:38;;;;;;;6.07;3.40;;;14.00;67.40;;;;;;5036610;28;20030;-69
2023/05/10 05:37:05;;;;;;;4.05;3.13;;;14.00;67.50;;;;;;5036450;28;20401;-74
2023/05/10 05:39:31;;;;;;;7.25;3.95;;;14.00;67.80;;;;;;5037012;28;20043;-69
2023/05/10 05:41:57;;;;;;;6.47;3.60;;;14.10;67.80;;;;;;5036467;28;20105;-69
2023/05/10 05:44:22;;;;;;;7.20;4.03;;;14.00;68.00;;;;;;5036264;28;20534;-70
2023/05/10 05:46:48;;;;;;;4.90;3.75;;;14.00;68.90;;;;;;5036846;28;20065;-70
2023/05/10 05:49:14;;;;;;;6.47;3.40;;;14.00;68.60;;;;;;5036267;28;20056;-70
2023/05/10 05:51:40;;;;;;;5.53;3.67;;;14.00;68.20;;;;;;5036686;28;20367;-70
2023/05/10 05:54:07;;;;;;;5.10;3.72;;;14.00;68.90;;;;;;5036098;28;20096;-70
2023/05/10 05:56:33;;;;;;;5.93;3.47;;;14.00;68.90;;;;;;5034858;28;20455;-69
2023/05/10 05:58:59;;;;;;;6.38;3.78;;;13.90;69.30;;;;;;5035056;28;20028;-69
2023/05/10 06:01:25;;;;;;;8.25;3.50;;;13.90;68.60;;;;;;5036224;28;20064;-68
2023/05/10 06:03:52;;;;;;;6.22;3.40;;;13.90;68.70;;;;;;5035738;28;20056;-68
2023/05/10 06:06:18;;;;;;;4.85;3.45;;;13.90;69.60;;;;;;5035918;28;20481;-68
2023/05/10 06:08:44;;;;;;;4.47;3.05;;;13.90;69.40;;;;;;5034036;28;20060;-66
2023/05/10 06:11:10;;;;;;;6.18;3.90;;;13.90;69.10;;;;;;5036274;28;20025;-67
2023/05/10 06:13:36;;;;;;;7.68;4.13;;;13.90;69.40;;;;;;5036220;28;20049;-66
2023/05/10 06:16:03;;;;;;;5.97;3.92;;;13.90;69.10;;;;;;5036039;28;20071;-65
2023/05/10 06:18:29;;;;;;;7.20;3.72;;;13.90;70.30;;;;;;5035733;28;20060;-67
2023/05/10 06:20:54;;;;;;;6.55;3.97;;;13.90;69.80;;;;;;5036175;28;20057;-66
2023/05/10 06:23:22;;;;;;;6.80;3.95;;;13.90;69.70;;;;;;5035628;28;20037;-67
2023/05/10 06:25:48;;;;;;;4.88;3.58;;;13.90;69.80;;;;;;5018525;28;20358;-66
2023/05/10 06:28:13;;;;;;;5.90;3.90;;;13.90;69.70;;;;;;5035595;28;20036;-67
2023/05/10 06:30:40;;;;;;;8.15;4.05;;;13.90;70.80;;;;;;5035416;28;20030;-68
2023/05/10 06:33:06;;;;;;;4.45;3.50;;;13.90;70.70;;;;;;5035719;28;20084;-67
2023/05/10 06:35:33;;;;;;;7.75;4.03;;;13.90;70.90;;;;;;5035680;28;20036;-67
2023/05/10 06:37:59;;;;;;;6.68;3.92;;;13.90;70.90;;;;;;5034439;28;20093;-66
2023/05/10 06:40:25;;;;;;;6.78;4.05;;;13.90;70.80;;;;;;5035369;28;20021;-66
2023/05/10 06:42:51;;;;;;;6.07;3.97;;;13.90;70.90;;;;;;5035781;28;20031;-64
2023/05/10 06:45:17;;;;;;;6.80;4.40;;;13.90;71.10;;;;;;5035571;28;20026;-66
2023/05/10 06:47:43;;;;;;;5.22;3.70;;;13.90;72.30;;;;;;5035209;28;20034;-65
2023/05/10 06:50:11;;;;;;;6.38;4.10;;;13.90;71.80;;;;;;5035208;28;20117;-65
2023/05/10 06:52:37;;;;;;;6.00;3.97;;;13.90;72.10;;;;;;5035044;28;20084;-65
2023/05/10 06:55:06;;;;;;;5.43;3.78;;;13.80;71.30;;;;;;5034818;28;20041;-65
2023/05/10 06:57:32;;;;;;;6.15;3.88;;;13.80;72.10;;;;;;5035525;28;20389;-65
2023/05/10 06:59:59;;;;;;;6.43;4.35;;;13.80;72.10;;;;;;5035343;28;20032;-64
2023/05/10 07:02:25;;;;;;;5.68;3.63;;;13.80;71.70;;;;;;5034024;28;20060;-65
2023/05/10 07:04:51;;;;;;;6.00;3.70;;;13.80;71.80;;;;;;5034045;28;20049;-62
2023/05/10 07:07:18;;;;;;;4.80;3.58;;;13.80;71.90;;;;;;5034938;28;20033;-65
2023/05/10 07:09:44;;;;;;;5.43;3.67;;;13.80;71.60;;;;;;5034951;28;20443;-61
2023/05/10 07:12:10;;;;;;;5.82;3.80;;;13.90;71.50;;;;;;5035322;28;20025;-62
2023/05/10 07:14:36;;;;;;;7.93;3.97;;;13.90;71.70;;;;;;5040179;28;20025;-61
2023/05/10 07:17:02;;;;;;;7.10;4.05;;;13.90;72.00;;;;;;5054288;28;20025;-61
2023/05/10 07:19:29;;;;;;;6.65;4.22;;;13.90;72.10;;;;;;5054856;28;20028;-66
2023/05/10 07:21:55;;;;;;;6.90;3.55;;;13.90;72.10;;;;;;5059205;28;20052;-66
2023/05/10 07:24:21;;;;;;;9.45;4.15;;;13.90;71.70;;;;;;5059100;28;20100;-63
2023/05/10 07:26:47;;;;;;;5.40;3.65;;;13.90;71.90;;;;;;5058078;28;20032;-62
2023/05/10 07:29:13;;;;;;;5.97;4.10;;;13.90;71.80;;;;;;5058850;28;20075;-63
2023/05/10 07:31:41;;;;;;;7.07;4.10;;;13.90;72.60;;;;;;5058712;28;20025;-65
2023/05/10 07:34:07;;;;;;;5.40;3.75;;;13.90;72.50;;;;;;5058921;28;20464;-64
2023/05/10 07:36:34;;;;;;;6.60;4.20;;;13.90;72.10;;;;;;5058704;28;20391;-69
2023/05/10 07:39:00;;;;;;;6.18;3.53;;;13.90;72.90;;;;;;5058910;28;20021;-66
2023/05/10 07:41:26;;;;;;;6.75;4.50;;;13.90;72.70;;;;;;5058823;28;20461;-67
2023/05/10 07:43:51;;;;;;;6.93;4.43;;;13.90;72.90;;;;;;5058535;28;20051;-66
2023/05/10 07:46:19;;;;;;;6.50;4.32;;;13.90;72.80;;;;;;5058853;28;20028;-65
2023/05/10 07:48:45;;;;;;;7.18;4.20;;;13.90;72.60;;;;;;5058743;28;20033;-66
2023/05/10 07:51:11;;;;;;;6.55;3.67;;;13.90;73.30;;;;;;5040714;28;20418;-65
2023/05/10 07:53:38;;;;;;;5.97;3.97;;;13.90;72.60;;;;;;5058485;28;20104;-66
2023/05/10 07:56:26;;;;;;;5.18;3.50;;;13.90;72.90;;;;;;5058294;28;20120;-65
2023/05/10 07:58:52;;;;;;;5.30;3.70;;;13.90;72.70;;;;;;5058157;28;20029;-65
2023/05/10 08:01:18;;;;;;;7.45;4.05;;;13.90;72.90;;;;;;5058213;28;20029;-65
2023/05/10 08:03:44;;;;;;;7.03;4.10;;;13.90;73.00;;;;;;5058130;28;20032;-65
2023/05/10 08:06:10;;;;;;;7.65;4.57;;;13.90;73.40;;;;;;5058140;28;20086;-65
2023/05/10 08:08:36;;;;;;;5.82;4.10;;;13.90;73.30;;;;;;5058068;28;20040;-65
2023/05/10 08:11:02;;;;;;;6.18;4.20;;;13.90;72.50;;;;;;5058012;28;20040;-65
2023/05/10 08:13:28;;;;;;;6.22;3.97;;;13.90;72.90;;;;;;5058159;28;20017;-65
2023/05/10 08:15:53;;;;;;;6.90;4.03;;;13.90;73.40;;;;;;5058571;28;20426;-65
2023/05/10 08:18:19;;;;;;;6.63;4.15;;;13.90;73.50;;;;;;5058514;28;20025;-65
2023/05/10 08:20:45;;;;;;;6.35;4.15;;;13.90;73.20;;;;;;5057941;28;20068;-65
2023/05/10 08:23:13;;;;;;;6.75;4.25;;;13.90;74.00;;;;;;5058077;28;20054;-65
2023/05/10 08:25:40;;;;;;;7.35;4.35;;;13.80;73.80;;;;;;5056700;28;20025;-65
2023/05/10 08:28:06;;;;;;;5.50;3.85;;;13.80;73.50;;;;;;5055711;28;20025;-65
2023/05/10 08:30:31;;;;;;;6.63;4.18;;;13.80;73.20;;;;;;5056742;28;20043;-64
2023/05/10 08:32:57;;;;;;;6.32;3.92;;;13.80;73.10;;;;;;5057637;28;20020;-65
2023/05/10 08:35:24;;;;;;;5.45;3.83;;;13.80;73.10;;;;;;5057957;28;20056;-65
2023/05/10 08:37:50;;;;;;;6.55;4.00;;;13.80;73.20;;;;;;5057937;28;20031;-65
2023/05/10 08:40:18;;;;;;;5.70;3.75;;;13.80;73.30;;;;;;5057648;28;20025;-64
2023/05/10 08:43:02;;;;;;;6.40;3.67;;;13.80;73.10;;;;;;5057502;28;20013;-73
2023/05/10 08:45:32;;;;;;;8.50;4.05;;;13.80;73.10;;;;;;5057832;28;20028;-64
2023/05/10 08:48:01;;;;;;;7.93;4.07;;;13.80;73.30;;;;;;5058056;28;20021;-65
2023/05/10 08:50:29;;;;;;;6.22;3.70;;;13.80;73.60;;;;;;5057614;28;20116;-64
2023/05/10 08:53:00;;;;;;;6.53;3.97;;;13.80;73.10;;;;;;5056407;28;20013;-72
2023/05/10 08:55:26;;;;;;;6.15;4.18;;;13.80;73.10;;;;;;5055393;28;20049;-72
2023/05/10 08:57:52;;;;;;;5.30;3.58;;;13.80;73.50;;;;;;5056946;28;20139;-65
2023/05/10 09:00:18;;;;;;;7.28;4.40;;;13.80;73.50;;;;;;5057106;28;20040;-65
2023/05/10 09:02:45;;;;;;;8.30;4.15;;;13.80;73.30;;;;;;5056537;28;20025;-65
2023/05/10 09:05:12;;;;;;;7.00;4.50;;;13.80;73.80;;;;;;5057126;28;20095;-65
2023/05/10 09:07:38;;;;;;;8.27;4.75;;;13.90;74.30;;;;;;5057099;28;20017;-65
2023/05/10 09:10:05;;;;;;;8.48;4.65;;;13.80;74.80;;;;;;5057594;28;20032;-65
2023/05/10 09:12:31;;;;;;;6.78;4.80;;;13.80;74.30;;;;;;5056997;28;20103;-65
2023/05/10 09:14:59;;;;;;;7.07;4.70;;;13.80;75.80;;;;;;5056926;28;20028;-65
2023/05/10 09:17:26;;;;;;;6.47;4.40;;;13.70;75.30;;;;;;5057155;28;20059;-65
2023/05/10 09:20:06;;;;;;;8.32;4.80;;;13.80;75.40;;;;;;5057443;28;20063;-65
2023/05/10 09:22:33;;;;;;;7.53;4.60;;;13.80;75.10;;;;;;5057251;28;20029;-65
2023/05/10 09:25:10;;;;;;;9.50;4.97;;;13.80;75.50;;;;;;5056808;28;20013;-65
2023/05/10 09:27:37;;;;;;;7.10;4.70;;;13.80;76.00;;;;;;5056988;28;20056;-65
2023/05/10 09:30:05;;;;;;;7.82;4.55;;;13.80;75.20;;;;;;5056730;28;20025;-65
2023/05/10 09:32:45;;;;;;;6.38;4.43;;;13.90;75.30;;;;;;5056435;28;20351;-65
2023/05/10 09:35:13;;;;;;;8.63;4.95;;;13.90;74.80;;;;;;5056897;28;20021;-65
2023/05/10 09:37:43;;;;;;;8.45;4.80;;;13.90;75.80;;;;;;5056553;28;20032;-65
2023/05/10 09:40:13;;;;;;;7.20;4.30;;;13.90;75.00;;;;;;5056734;28;20025;-65
2023/05/10 09:43:00;;;;;;;6.22;4.28;;;13.90;75.30;;;;;;5056818;28;20060;-65
2023/05/10 09:45:29;;;;;;;8.02;4.72;;;14.00;75.30;;;;;;5056391;28;20361;-65
2023/05/10 09:47:56;;;;;;;7.85;4.63;;;13.90;74.90;;;;;;5056582;28;20029;-65
2023/05/10 09:50:22;;;;;;;6.03;4.15;;;14.00;74.50;;;;;;5056727;28;20025;-65
2023/05/10 09:52:48;;;;;;;8.23;4.93;;;14.00;74.30;;;;;;5056185;28;20024;-65
2023/05/10 09:55:15;;;;;;;9.73;4.95;;;14.00;74.70;;;;;;5056159;28;20068;-65
2023/05/10 09:57:41;;;;;;;7.22;4.53;;;14.00;74.80;;;;;;5056105;28;20049;-65
2023/05/10 10:00:09;;;;;;;7.40;4.50;;;14.00;74.80;;;;;;5056051;28;20024;-65
2023/05/10 10:02:36;;;;;;;8.35;4.97;;;13.90;74.80;;;;;;5055925;28;20040;-65
2023/05/10 10:05:05;;;;;;;7.65;4.78;;;13.90;74.90;;;;;;5055981;28;20029;-65
2023/05/10 10:07:31;;;;;;;8.73;4.68;;;13.90;75.00;;;;;;5055936;28;20032;-65
2023/05/10 10:09:58;;;;;;;9.60;4.43;;;13.80;75.20;;;;;;5055898;28;20112;-65
2023/05/10 10:12:25;;;;;;;7.18;5.00;;;13.80;75.10;;;;;;5055995;28;20033;-65
2023/05/10 10:14:52;;;;;;;7.07;4.78;;;13.80;74.70;;;;;;5055855;28;20035;-65
2023/05/10 10:17:19;;;;;;;7.25;4.68;;;13.90;74.50;;;;;;5056296;28;20036;-65
2023/05/10 10:19:46;;;;;;;7.07;4.60;;;13.90;75.50;;;;;;5056018;28;20539;-65
2023/05/10 10:22:12;;;;;;;8.07;5.57;;;13.90;74.90;;;;;;5056142;28;20033;-65
2023/05/10 10:24:41;;;;;;;8.25;5.03;;;13.90;75.20;;;;;;5055618;28;20029;-65
2023/05/10 10:27:26;;;;;;;8.68;5.50;;;13.90;74.80;;;;;;5055881;28;20036;-65
2023/05/10 10:30:20;;;;;;;10.00;4.95;;;13.90;74.80;;;;;;5055821;28;20040;-65
2023/05/10 10:33:10;;;;;;;8.77;5.30;;;14.00;74.60;;;;;;5055459;28;20369;-65
2023/05/10 10:35:36;;;;;;;7.57;4.50;;;13.90;75.90;;;;;;5055744;28;20457;-65
2023/05/10 10:38:02;;;;;;;8.75;5.47;;;13.90;75.60;;;;;;5055435;28;20096;-65
2023/05/10 10:40:30;;;;;;;8.60;5.28;;;13.90;75.90;;;;;;5054382;28;20036;-65
2023/05/10 10:42:57;;;;;;;9.20;5.55;;;14.00;75.70;;;;;;5055544;28;20033;-65
2023/05/10 10:45:25;;;;;;;8.35;5.50;;;13.90;75.20;;;;;;5055213;28;20040;-65
2023/05/10 10:48:23;;;;;;;8.50;5.15;;;13.90;75.60;;;;;;5055227;28;20036;-65
2023/05/10 10:50:57;;;;;;;8.38;4.90;;;14.00;75.30;;;;;;5055161;28;20029;-65
2023/05/10 10:53:27;;;;;;;9.30;5.70;;;14.00;75.30;;;;;;5054956;28;20029;-65
2023/05/10 10:56:06;;;;;;;9.05;5.47;;;14.00;75.90;;;;;;5054948;28;20091;-65
2023/05/10 10:58:33;;;;;;;10.50;5.28;;;14.00;75.30;;;;;;5055753;28;20024;-65
2023/05/10 11:01:11;;;;;;;9.30;5.43;;;14.10;75.90;;;;;;5055376;28;20427;-65
2023/05/10 11:03:37;;;;;;;11.02;5.35;;;14.10;75.90;;;;;;5055022;28;20024;-65
2023/05/10 11:06:03;;;;;;;10.40;6.10;;;14.10;75.90;;;;;;5055295;28;20026;-65
2023/05/10 11:08:31;;;;;;;11.48;6.45;;;14.20;76.50;;;;;;5055574;28;20054;-65
2023/05/10 11:10:59;;;;;;;8.20;5.00;;;14.20;75.80;;;;;;5054954;28;20457;-65
2023/05/10 11:13:37;;;;;;;10.15;5.40;;;14.20;75.30;;;;;;5054946;28;20017;-65
2023/05/10 11:16:23;;;;;;;8.13;5.15;;;14.30;75.70;;;;;;5055498;28;20021;-65
2023/05/10 11:19:01;;;;;;;10.23;5.70;;;14.40;75.30;;;;;;5055544;28;20049;-65
2023/05/10 11:21:32;;;;;;;8.65;5.22;;;14.40;76.20;;;;;;5054970;28;20021;-65
2023/05/10 11:24:00;;;;;;;9.02;5.78;;;14.40;75.70;;;;;;5054819;28;20029;-65
2023/05/10 11:26:31;;;;;;;10.70;6.22;;;14.40;75.50;;;;;;5055148;28;20027;-65
2023/05/10 11:28:58;;;;;;;10.07;6.20;;;14.40;76.80;;;;;;5055185;28;20173;-65
2023/05/10 11:31:26;;;;;;;11.38;5.95;;;14.40;75.40;;;;;;5054971;28;20127;-65
2023/05/10 11:33:57;;;;;;;8.15;5.32;;;14.40;75.90;;;;;;5054990;28;20067;-65
2023/05/10 11:36:32;;;;;;;7.93;5.10;;;14.40;76.40;;;;;;5055315;28;20053;-65
2023/05/10 11:38:58;;;;;;;9.00;5.55;;;14.40;75.50;;;;;;5055070;28;20021;-65
2023/05/10 11:41:26;;;;;;;8.32;5.10;;;14.40;76.40;;;;;;5054976;28;20032;-65
2023/05/10 11:43:54;;;;;;;8.52;5.50;;;14.30;76.00;;;;;;5054723;28;20120;-65
2023/05/10 11:46:27;;;;;;;10.30;6.13;;;14.30;75.50;;;;;;5055214;28;20056;-65
2023/05/10 11:49:06;;;;;;;12.23;5.20;;;14.30;75.80;;;;;;5054975;28;20431;-65
2023/05/10 11:51:36;;;;;;;8.77;5.43;;;14.30;75.60;;;;;;5054858;28;20025;-65
2023/05/10 11:54:07;;;;;;;8.13;5.43;;;14.30;75.80;;;;;;5054574;28;20045;-65
2023/05/10 11:56:33;;;;;;;9.30;5.40;;;14.30;76.10;;;;;;5054292;28;20053;-65
2023/05/10 11:59:02;;;;;;;7.95;5.10;;;14.30;76.40;;;;;;5054600;28;20025;-65
2023/05/10 12:01:28;;;;;;;7.97;5.43;;;14.20;76.30;;;;;;5054475;28;20082;-65
2023/05/10 12:03:59;;;;;;;8.68;5.38;;;14.20;76.00;;;;;;5054419;28;20346;-65
2023/05/10 12:06:40;;;;;;;9.75;5.38;;;14.20;76.40;;;;;;5056446;28;20346;-65
2023/05/10 12:09:07;;;;;;;8.73;5.28;;;14.20;76.70;;;;;;5058995;28;20094;-65
2023/05/10 12:11:37;;;;;;;9.85;5.97;;;14.20;76.50;;;;;;5057425;28;20028;-65
2023/05/10 12:14:05;;;;;;;10.38;5.82;;;14.20;76.60;;;;;;5058050;28;20021;-65
2023/05/10 12:16:31;;;;;;;9.20;5.18;;;14.10;76.80;;;;;;5058360;28;20025;-65
2023/05/10 12:18:59;;;;;;;7.72;5.57;;;14.20;76.80;;;;;;5057987;28;20064;-65
2023/05/10 12:21:26;;;;;;;9.38;5.00;;;14.10;76.80;;;;;;5058006;28;20025;-65
2023/05/10 12:24:03;;;;;;;9.57;5.60;;;14.10;77.20;;;;;;5057842;28;20448;-65
2023/05/10 12:26:30;;;;;;;8.35;5.65;;;14.10;77.90;;;;;;5058168;28;20029;-65
2023/05/10 12:29:15;;;;;;;8.55;5.82;;;14.10;77.40;;;;;;5057837;28;20359;-65
2023/05/10 12:31:58;;;;;;;9.10;5.38;;;14.10;77.40;;;;;;5058309;28;20061;-65
2023/05/10 12:34:31;;;;;;;9.37;5.83;;;14.10;77.40;;;;;;5057695;28;20043;-65
2023/05/10 12:36:58;;;;;;;9.33;5.80;;;14.10;77.10;;;;;;5057958;28;20040;-65
2023/05/10 12:39:24;;;;;;;10.85;6.20;;;14.00;77.10;;;;;;5057682;28;20021;-65
2023/05/10 12:41:51;;;;;;;11.15;6.50;;;14.00;76.80;;;;;;5057542;28;20470;-65
2023/05/10 12:44:18;;;;;;;9.45;5.97;;;14.00;77.10;;;;;;5057492;28;20035;-65
2023/05/10 12:46:44;;;;;;;10.88;7.03;;;13.90;77.70;;;;;;5058061;28;20025;-65
2023/05/10 12:49:10;;;;;;;11.25;6.32;;;13.90;78.00;;;;;;5058035;28;20040;-65
2023/05/10 12:51:36;;;;;;;10.00;6.15;;;13.90;77.70;;;;;;5057276;28;20061;-65
2023/05/10 12:54:03;;;;;;;10.95;6.82;;;13.90;77.80;;;;;;5057322;28;20060;-65